sensor_id;sensor_type;location;lat;lon;timestamp;temperature;humidity
79698;SHT31;69168;42.708;23.286;2023-05-20T00:00:29;13.77;73.65
79698;SHT31;69168;42.708;23.286;2023-05-20T00:02:55;13.67;74.35
79698;SHT31;69168;42.708;23.286;2023-05-20T00:05:22;13.36;74.93
79698;SHT31;69168;42.708;23.286;2023-05-20T00:07:47;13.29;75.15
79698;SHT31;69168;42.708;23.286;2023-05-20T00:10:13;13.42;75.17
79698;SHT31;69168;42.708;23.286;2023-05-20T00:12:38;13.56;74.25
79698;SHT31;69168;42.708;23.286;2023-05-20T00:15:04;13.57;74.23
79698;SHT31;69168;42.708;23.286;2023-05-20T00:17:30;13.57;73.94
79698;SHT31;69168;42.708;23.286;2023-05-20T00:19:56;13.52;74.19
79698;SHT31;69168;42.708;23.286;2023-05-20T00:22:21;13.57;74.09
79698;SHT31;69168;42.708;23.286;2023-05-20T00:24:47;13.50;74.16
79698;SHT31;69168;42.708;23.286;2023-05-20T00:27:12;13.50;74.10
79698;SHT31;69168;42.708;23.286;2023-05-20T00:29:38;13.53;73.78
79698;SHT31;69168;42.708;23.286;2023-05-20T00:32:03;13.46;74.17
79698;SHT31;69168;42.708;23.286;2023-05-20T00:34:29;13.50;73.95
79698;SHT31;69168;42.708;23.286;2023-05-20T00:36:54;13.53;73.39
79698;SHT31;69168;42.708;23.286;2023-05-20T00:39:20;13.67;73.09
79698;SHT31;69168;42.708;23.286;2023-05-20T00:41:45;13.55;73.42
79698;SHT31;69168;42.708;23.286;2023-05-20T00:44:11;13.62;73.05
79698;SHT31;69168;42.708;23.286;2023-05-20T00:46:36;13.59;73.14
79698;SHT31;69168;42.708;23.286;2023-05-20T00:49:02;13.74;72.48
79698;SHT31;69168;42.708;23.286;2023-05-20T00:51:28;13.70;72.65
79698;SHT31;69168;42.708;23.286;2023-05-20T00:53:55;13.59;72.88
79698;SHT31;69168;42.708;23.286;2023-05-20T00:56:21;13.56;73.15
79698;SHT31;69168;42.708;23.286;2023-05-20T00:58:48;13.48;73.35
79698;SHT31;69168;42.708;23.286;2023-05-20T01:01:14;13.45;73.23
79698;SHT31;69168;42.708;23.286;2023-05-20T01:03:40;13.43;73.23
79698;SHT31;69168;42.708;23.286;2023-05-20T01:06:05;13.36;73.75
79698;SHT31;69168;42.708;23.286;2023-05-20T01:08:31;13.22;74.01
79698;SHT31;69168;42.708;23.286;2023-05-20T01:11:10;13.12;74.65
79698;SHT31;69168;42.708;23.286;2023-05-20T01:13:59;13.02;75.11
79698;SHT31;69168;42.708;23.286;2023-05-20T01:16:26;13.14;74.72
79698;SHT31;69168;42.708;23.286;2023-05-20T01:18:54;13.08;74.81
79698;SHT31;69168;42.708;23.286;2023-05-20T01:21:22;13.12;75.04
79698;SHT31;69168;42.708;23.286;2023-05-20T01:23:47;13.18;74.56
79698;SHT31;69168;42.708;23.286;2023-05-20T01:26:13;13.21;74.37
79698;SHT31;69168;42.708;23.286;2023-05-20T01:28:40;13.18;74.52
79698;SHT31;69168;42.708;23.286;2023-05-20T01:31:13;13.18;74.03
79698;SHT31;69168;42.708;23.286;2023-05-20T01:33:39;13.18;73.73
79698;SHT31;69168;42.708;23.286;2023-05-20T01:36:07;13.15;73.93
79698;SHT31;69168;42.708;23.286;2023-05-20T01:38:34;13.14;73.88
79698;SHT31;69168;42.708;23.286;2023-05-20T01:41:01;13.14;73.94
79698;SHT31;69168;42.708;23.286;2023-05-20T01:43:29;13.05;74.25
79698;SHT31;69168;42.708;23.286;2023-05-20T01:45:55;13.10;74.28
79698;SHT31;69168;42.708;23.286;2023-05-20T01:48:20;13.02;74.46
79698;SHT31;69168;42.708;23.286;2023-05-20T01:50:46;13.01;74.31
79698;SHT31;69168;42.708;23.286;2023-05-20T01:53:11;13.02;74.41
79698;SHT31;69168;42.708;23.286;2023-05-20T01:55:37;13.05;73.95
79698;SHT31;69168;42.708;23.286;2023-05-20T01:58:03;13.02;73.90
79698;SHT31;69168;42.708;23.286;2023-05-20T02:00:30;13.05;74.00
79698;SHT31;69168;42.708;23.286;2023-05-20T02:02:55;13.00;74.52
79698;SHT31;69168;42.708;23.286;2023-05-20T02:05:21;12.95;74.33
79698;SHT31;69168;42.708;23.286;2023-05-20T02:07:46;12.97;74.48
79698;SHT31;69168;42.708;23.286;2023-05-20T02:10:12;12.93;74.31
79698;SHT31;69168;42.708;23.286;2023-05-20T02:12:37;12.93;74.23
79698;SHT31;69168;42.708;23.286;2023-05-20T02:15:03;12.94;74.81
79698;SHT31;69168;42.708;23.286;2023-05-20T02:17:29;12.91;74.73
79698;SHT31;69168;42.708;23.286;2023-05-20T02:19:55;12.93;74.53
79698;SHT31;69168;42.708;23.286;2023-05-20T02:22:20;12.88;74.38
79698;SHT31;69168;42.708;23.286;2023-05-20T02:24:46;12.87;74.65
79698;SHT31;69168;42.708;23.286;2023-05-20T02:27:11;12.93;74.36
79698;SHT31;69168;42.708;23.286;2023-05-20T02:29:37;13.08;73.88
79698;SHT31;69168;42.708;23.286;2023-05-20T02:32:03;13.00;74.14
79698;SHT31;69168;42.708;23.286;2023-05-20T02:34:30;12.93;74.12
79698;SHT31;69168;42.708;23.286;2023-05-20T02:36:55;12.91;74.30
79698;SHT31;69168;42.708;23.286;2023-05-20T02:39:21;12.94;74.16
79698;SHT31;69168;42.708;23.286;2023-05-20T02:41:47;12.87;74.45
79698;SHT31;69168;42.708;23.286;2023-05-20T02:44:13;12.87;74.66
79698;SHT31;69168;42.708;23.286;2023-05-20T02:46:38;12.81;74.38
79698;SHT31;69168;42.708;23.286;2023-05-20T02:49:04;12.98;74.49
79698;SHT31;69168;42.708;23.286;2023-05-20T02:51:29;12.87;74.59
79698;SHT31;69168;42.708;23.286;2023-05-20T02:53:56;12.81;74.37
79698;SHT31;69168;42.708;23.286;2023-05-20T02:56:21;12.84;74.37
79698;SHT31;69168;42.708;23.286;2023-05-20T02:58:47;12.70;74.31
79698;SHT31;69168;42.708;23.286;2023-05-20T03:01:12;12.57;75.03
79698;SHT31;69168;42.708;23.286;2023-05-20T03:03:38;12.60;74.80
79698;SHT31;69168;42.708;23.286;2023-05-20T03:06:05;12.59;74.77
79698;SHT31;69168;42.708;23.286;2023-05-20T03:08:32;12.50;75.60
79698;SHT31;69168;42.708;23.286;2023-05-20T03:10:59;12.53;75.31
79698;SHT31;69168;42.708;23.286;2023-05-20T03:13:24;12.46;75.59
79698;SHT31;69168;42.708;23.286;2023-05-20T03:15:50;12.46;75.35
79698;SHT31;69168;42.708;23.286;2023-05-20T03:18:15;12.49;75.49
79698;SHT31;69168;42.708;23.286;2023-05-20T03:20:40;12.42;75.58
79698;SHT31;69168;42.708;23.286;2023-05-20T03:23:06;12.40;75.61
79698;SHT31;69168;42.708;23.286;2023-05-20T03:25:32;12.39;75.75
79698;SHT31;69168;42.708;23.286;2023-05-20T03:27:58;12.38;75.63
79698;SHT31;69168;42.708;23.286;2023-05-20T03:30:24;12.40;75.64
79698;SHT31;69168;42.708;23.286;2023-05-20T03:32:50;12.43;75.51
79698;SHT31;69168;42.708;23.286;2023-05-20T03:35:16;12.35;75.66
79698;SHT31;69168;42.708;23.286;2023-05-20T03:37:41;12.24;76.05
79698;SHT31;69168;42.708;23.286;2023-05-20T03:40:08;12.30;75.93
79698;SHT31;69168;42.708;23.286;2023-05-20T03:42:37;12.32;75.97
79698;SHT31;69168;42.708;23.286;2023-05-20T03:45:03;12.33;75.97
79698;SHT31;69168;42.708;23.286;2023-05-20T03:47:29;12.36;76.24
79698;SHT31;69168;42.708;23.286;2023-05-20T03:49:54;12.36;76.26
79698;SHT31;69168;42.708;23.286;2023-05-20T03:52:20;12.39;76.58
79698;SHT31;69168;42.708;23.286;2023-05-20T03:54:46;12.42;76.73
79698;SHT31;69168;42.708;23.286;2023-05-20T03:57:11;12.47;76.54
79698;SHT31;69168;42.708;23.286;2023-05-20T03:59:37;12.49;76.28
79698;SHT31;69168;42.708;23.286;2023-05-20T04:02:03;12.47;76.43
79698;SHT31;69168;42.708;23.286;2023-05-20T04:04:29;12.47;76.85
79698;SHT31;69168;42.708;23.286;2023-05-20T04:06:54;12.50;76.54
79698;SHT31;69168;42.708;23.286;2023-05-20T04:09:25;12.53;76.69
79698;SHT31;69168;42.708;23.286;2023-05-20T04:11:50;12.50;77.12
79698;SHT31;69168;42.708;23.286;2023-05-20T04:14:16;12.57;77.09
79698;SHT31;69168;42.708;23.286;2023-05-20T04:16:44;12.57;77.39
79698;SHT31;69168;42.708;23.286;2023-05-20T04:19:11;12.61;77.42
79698;SHT31;69168;42.708;23.286;2023-05-20T04:21:37;12.50;77.94
79698;SHT31;69168;42.708;23.286;2023-05-20T04:24:02;12.52;78.07
79698;SHT31;69168;42.708;23.286;2023-05-20T04:26:28;12.61;77.88
79698;SHT31;69168;42.708;23.286;2023-05-20T04:28:54;12.50;78.34
79698;SHT31;69168;42.708;23.286;2023-05-20T04:31:23;12.52;78.35
79698;SHT31;69168;42.708;23.286;2023-05-20T04:33:51;12.55;78.16
79698;SHT31;69168;42.708;23.286;2023-05-20T04:36:17;12.55;78.49
79698;SHT31;69168;42.708;23.286;2023-05-20T04:38:43;12.66;78.13
79698;SHT31;69168;42.708;23.286;2023-05-20T04:41:09;12.68;78.08
79698;SHT31;69168;42.708;23.286;2023-05-20T04:43:35;12.66;78.41
79698;SHT31;69168;42.708;23.286;2023-05-20T04:46:03;12.72;78.37
79698;SHT31;69168;42.708;23.286;2023-05-20T04:48:30;12.81;78.34
79698;SHT31;69168;42.708;23.286;2023-05-20T04:50:56;12.93;78.07
79698;SHT31;69168;42.708;23.286;2023-05-20T04:53:21;12.97;77.96
79698;SHT31;69168;42.708;23.286;2023-05-20T04:55:47;13.04;77.68
79698;SHT31;69168;42.708;23.286;2023-05-20T04:58:14;13.05;78.45
79698;SHT31;69168;42.708;23.286;2023-05-20T05:00:43;13.08;78.30
79698;SHT31;69168;42.708;23.286;2023-05-20T05:03:10;13.21;77.67
79698;SHT31;69168;42.708;23.286;2023-05-20T05:05:37;13.28;77.50
79698;SHT31;69168;42.708;23.286;2023-05-20T05:08:04;13.34;77.33
79698;SHT31;69168;42.708;23.286;2023-05-20T05:10:30;13.38;77.23
79698;SHT31;69168;42.708;23.286;2023-05-20T05:12:55;13.38;77.18
79698;SHT31;69168;42.708;23.286;2023-05-20T05:15:21;13.45;76.89
79698;SHT31;69168;42.708;23.286;2023-05-20T05:17:46;13.46;77.14
79698;SHT31;69168;42.708;23.286;2023-05-20T05:20:12;13.49;76.89
79698;SHT31;69168;42.708;23.286;2023-05-20T05:22:37;13.63;76.46
79698;SHT31;69168;42.708;23.286;2023-05-20T05:25:05;13.71;76.23
79698;SHT31;69168;42.708;23.286;2023-05-20T05:27:31;13.81;75.60
79698;SHT31;69168;42.708;23.286;2023-05-20T05:29:56;13.94;75.31
79698;SHT31;69168;42.708;23.286;2023-05-20T05:32:22;14.10;74.65
79698;SHT31;69168;42.708;23.286;2023-05-20T05:34:47;14.08;74.80
79698;SHT31;69168;42.708;23.286;2023-05-20T05:37:13;14.15;74.79
79698;SHT31;69168;42.708;23.286;2023-05-20T05:39:38;14.14;74.85
79698;SHT31;69168;42.708;23.286;2023-05-20T05:42:04;14.22;74.93
79698;SHT31;69168;42.708;23.286;2023-05-20T05:44:29;14.22;74.27
79698;SHT31;69168;42.708;23.286;2023-05-20T05:46:55;14.28;74.69
79698;SHT31;69168;42.708;23.286;2023-05-20T05:49:21;14.32;74.77
79698;SHT31;69168;42.708;23.286;2023-05-20T05:51:46;14.36;73.94
79698;SHT31;69168;42.708;23.286;2023-05-20T05:54:12;14.50;73.51
79698;SHT31;69168;42.708;23.286;2023-05-20T05:56:37;14.55;73.82
79698;SHT31;69168;42.708;23.286;2023-05-20T05:59:03;14.62;73.71
79698;SHT31;69168;42.708;23.286;2023-05-20T06:01:29;14.70;73.52
79698;SHT31;69168;42.708;23.286;2023-05-20T06:03:55;14.77;72.76
79698;SHT31;69168;42.708;23.286;2023-05-20T06:06:20;14.84;72.98
79698;SHT31;69168;42.708;23.286;2023-05-20T06:08:46;14.86;72.94
79698;SHT31;69168;42.708;23.286;2023-05-20T06:11:11;14.93;72.69
79698;SHT31;69168;42.708;23.286;2023-05-20T06:13:37;15.05;71.74
79698;SHT31;69168;42.708;23.286;2023-05-20T06:16:02;15.10;71.94
79698;SHT31;69168;42.708;23.286;2023-05-20T06:18:28;15.15;71.90
79698;SHT31;69168;42.708;23.286;2023-05-20T06:20:57;15.22;72.15
79698;SHT31;69168;42.708;23.286;2023-05-20T06:23:24;15.28;71.56
79698;SHT31;69168;42.708;23.286;2023-05-20T06:25:49;15.38;70.57
79698;SHT31;69168;42.708;23.286;2023-05-20T06:28:15;15.43;70.43
79698;SHT31;69168;42.708;23.286;2023-05-20T06:30:41;15.49;70.15
79698;SHT31;69168;42.708;23.286;2023-05-20T06:33:07;15.56;69.21
79698;SHT31;69168;42.708;23.286;2023-05-20T06:35:32;15.65;69.56
79698;SHT31;69168;42.708;23.286;2023-05-20T06:38:01;15.70;69.37
79698;SHT31;69168;42.708;23.286;2023-05-20T06:40:27;15.77;68.91
79698;SHT31;69168;42.708;23.286;2023-05-20T06:42:52;15.89;67.90
79698;SHT31;69168;42.708;23.286;2023-05-20T06:45:18;15.96;66.61
79698;SHT31;69168;42.708;23.286;2023-05-20T06:47:44;16.01;66.16
79698;SHT31;69168;42.708;23.286;2023-05-20T06:50:10;16.17;64.81
79698;SHT31;69168;42.708;23.286;2023-05-20T06:52:36;16.14;64.52
79698;SHT31;69168;42.708;23.286;2023-05-20T06:55:03;16.14;63.69
79698;SHT31;69168;42.708;23.286;2023-05-20T06:57:29;16.21;63.84
79698;SHT31;69168;42.708;23.286;2023-05-20T06:59:55;16.24;64.45
79698;SHT31;69168;42.708;23.286;2023-05-20T07:02:21;16.44;64.19
79698;SHT31;69168;42.708;23.286;2023-05-20T07:04:47;16.55;62.79
79698;SHT31;69168;42.708;23.286;2023-05-20T07:07:13;16.56;61.85
79698;SHT31;69168;42.708;23.286;2023-05-20T07:09:38;16.56;62.74
79698;SHT31;69168;42.708;23.286;2023-05-20T07:12:04;16.60;62.91
79698;SHT31;69168;42.708;23.286;2023-05-20T07:14:30;16.66;62.73
79698;SHT31;69168;42.708;23.286;2023-05-20T07:16:55;16.72;62.33
79698;SHT31;69168;42.708;23.286;2023-05-20T07:19:20;16.83;61.93
79698;SHT31;69168;42.708;23.286;2023-05-20T07:21:46;16.91;59.93
79698;SHT31;69168;42.708;23.286;2023-05-20T07:24:11;16.94;59.03
79698;SHT31;69168;42.708;23.286;2023-05-20T07:26:37;17.08;58.74
79698;SHT31;69168;42.708;23.286;2023-05-20T07:29:03;17.08;59.09
79698;SHT31;69168;42.708;23.286;2023-05-20T07:31:29;17.25;57.22
79698;SHT31;69168;42.708;23.286;2023-05-20T07:33:55;17.38;58.01
79698;SHT31;69168;42.708;23.286;2023-05-20T07:36:21;17.43;57.18
79698;SHT31;69168;42.708;23.286;2023-05-20T07:38:46;17.24;57.95
79698;SHT31;69168;42.708;23.286;2023-05-20T07:41:12;17.24;58.45
79698;SHT31;69168;42.708;23.286;2023-05-20T07:43:37;17.28;58.26
79698;SHT31;69168;42.708;23.286;2023-05-20T07:46:02;17.30;57.83
79698;SHT31;69168;42.708;23.286;2023-05-20T07:48:28;17.43;56.94
79698;SHT31;69168;42.708;23.286;2023-05-20T07:50:53;17.68;56.17
79698;SHT31;69168;42.708;23.286;2023-05-20T07:53:21;18.03;54.60
79698;SHT31;69168;42.708;23.286;2023-05-20T07:55:47;17.98;54.46
79698;SHT31;69168;42.708;23.286;2023-05-20T07:58:12;17.94;55.54
79698;SHT31;69168;42.708;23.286;2023-05-20T08:00:38;17.83;56.83
79698;SHT31;69168;42.708;23.286;2023-05-20T08:03:03;17.94;56.29
79698;SHT31;69168;42.708;23.286;2023-05-20T08:05:28;17.80;57.07
79698;SHT31;69168;42.708;23.286;2023-05-20T08:07:54;17.89;56.97
79698;SHT31;69168;42.708;23.286;2023-05-20T08:10:20;18.04;56.39
79698;SHT31;69168;42.708;23.286;2023-05-20T08:12:46;18.00;56.53
79698;SHT31;69168;42.708;23.286;2023-05-20T08:15:11;18.10;56.76
79698;SHT31;69168;42.708;23.286;2023-05-20T08:17:37;18.23;57.23
79698;SHT31;69168;42.708;23.286;2023-05-20T08:20:03;18.31;56.71
79698;SHT31;69168;42.708;23.286;2023-05-20T08:22:28;18.25;57.08
79698;SHT31;69168;42.708;23.286;2023-05-20T08:24:54;18.15;57.65
79698;SHT31;69168;42.708;23.286;2023-05-20T08:27:19;18.20;57.74
79698;SHT31;69168;42.708;23.286;2023-05-20T08:29:45;18.23;57.83
79698;SHT31;69168;42.708;23.286;2023-05-20T08:32:10;18.23;57.51
79698;SHT31;69168;42.708;23.286;2023-05-20T08:34:36;18.37;57.96
79698;SHT31;69168;42.708;23.286;2023-05-20T08:37:01;18.42;58.07
79698;SHT31;69168;42.708;23.286;2023-05-20T08:39:27;18.45;58.24
79698;SHT31;69168;42.708;23.286;2023-05-20T08:41:52;18.53;58.61
79698;SHT31;69168;42.708;23.286;2023-05-20T08:44:20;18.58;56.96
79698;SHT31;69168;42.708;23.286;2023-05-20T08:46:47;18.49;57.28
79698;SHT31;69168;42.708;23.286;2023-05-20T08:49:13;18.47;58.23
79698;SHT31;69168;42.708;23.286;2023-05-20T08:51:38;18.48;58.35
79698;SHT31;69168;42.708;23.286;2023-05-20T08:54:05;18.52;57.89
79698;SHT31;69168;42.708;23.286;2023-05-20T08:56:32;18.47;57.63
79698;SHT31;69168;42.708;23.286;2023-05-20T08:58:58;18.51;58.04
79698;SHT31;69168;42.708;23.286;2023-05-20T09:01:24;18.53;58.06
79698;SHT31;69168;42.708;23.286;2023-05-20T09:03:50;18.66;58.00
79698;SHT31;69168;42.708;23.286;2023-05-20T09:06:16;18.82;58.68
79698;SHT31;69168;42.708;23.286;2023-05-20T09:08:44;18.90;57.25
79698;SHT31;69168;42.708;23.286;2023-05-20T09:11:11;18.97;56.94
79698;SHT31;69168;42.708;23.286;2023-05-20T09:13:36;19.06;57.65
79698;SHT31;69168;42.708;23.286;2023-05-20T09:16:02;19.16;57.36
79698;SHT31;69168;42.708;23.286;2023-05-20T09:18:28;19.21;56.23
79698;SHT31;69168;42.708;23.286;2023-05-20T09:20:53;19.21;55.91
79698;SHT31;69168;42.708;23.286;2023-05-20T09:23:19;19.20;56.64
79698;SHT31;69168;42.708;23.286;2023-05-20T09:25:49;19.21;56.41
79698;SHT31;69168;42.708;23.286;2023-05-20T09:28:19;19.30;55.17
79698;SHT31;69168;42.708;23.286;2023-05-20T09:30:48;19.43;54.98
79698;SHT31;69168;42.708;23.286;2023-05-20T09:33:14;19.61;55.43
79698;SHT31;69168;42.708;23.286;2023-05-20T09:35:40;19.75;54.58
79698;SHT31;69168;42.708;23.286;2023-05-20T09:38:06;19.73;53.68
79698;SHT31;69168;42.708;23.286;2023-05-20T09:40:32;19.62;54.05
79698;SHT31;69168;42.708;23.286;2023-05-20T09:43:02;19.59;54.32
79698;SHT31;69168;42.708;23.286;2023-05-20T09:45:28;19.76;54.42
79698;SHT31;69168;42.708;23.286;2023-05-20T09:47:55;19.78;54.69
79698;SHT31;69168;42.708;23.286;2023-05-20T09:50:22;19.92;54.51
79698;SHT31;69168;42.708;23.286;2023-05-20T09:52:51;20.03;54.25
79698;SHT31;69168;42.708;23.286;2023-05-20T09:55:19;20.20;53.80
79698;SHT31;69168;42.708;23.286;2023-05-20T09:57:45;20.23;53.92
79698;SHT31;69168;42.708;23.286;2023-05-20T10:00:12;20.30;53.35
79698;SHT31;69168;42.708;23.286;2023-05-20T10:02:42;20.40;53.36
79698;SHT31;69168;42.708;23.286;2023-05-20T10:05:13;20.67;51.90
79698;SHT31;69168;42.708;23.286;2023-05-20T10:08:04;20.78;51.00
79698;SHT31;69168;42.708;23.286;2023-05-20T10:10:57;20.76;51.95
79698;SHT31;69168;42.708;23.286;2023-05-20T10:18:52;20.86;50.50
79698;SHT31;69168;42.708;23.286;2023-05-20T10:21:21;21.00;49.20
79698;SHT31;69168;42.708;23.286;2023-05-20T10:23:49;21.10;49.73
79698;SHT31;69168;42.708;23.286;2023-05-20T10:26:15;21.22;49.41
79698;SHT31;69168;42.708;23.286;2023-05-20T10:28:42;21.38;49.95
79698;SHT31;69168;42.708;23.286;2023-05-20T10:31:20;21.58;48.99
79698;SHT31;69168;42.708;23.286;2023-05-20T10:33:47;21.66;48.54
79698;SHT31;69168;42.708;23.286;2023-05-20T10:36:27;21.69;47.32
79698;SHT31;69168;42.708;23.286;2023-05-20T10:38:54;21.85;47.58
79698;SHT31;69168;42.708;23.286;2023-05-20T10:41:22;22.09;48.93
79698;SHT31;69168;42.708;23.286;2023-05-20T10:44:06;22.27;45.43
79698;SHT31;69168;42.708;23.286;2023-05-20T10:46:33;22.53;45.19
79698;SHT31;69168;42.708;23.286;2023-05-20T10:49:01;22.54;45.45
79698;SHT31;69168;42.708;23.286;2023-05-20T10:51:28;22.67;44.01
79698;SHT31;69168;42.708;23.286;2023-05-20T10:53:56;22.67;43.75
79698;SHT31;69168;42.708;23.286;2023-05-20T10:56:24;22.75;44.02
79698;SHT31;69168;42.708;23.286;2023-05-20T10:58:51;22.81;43.38
79698;SHT31;69168;42.708;23.286;2023-05-20T11:01:17;22.88;42.89
79698;SHT31;69168;42.708;23.286;2023-05-20T11:03:46;22.88;42.59
79698;SHT31;69168;42.708;23.286;2023-05-20T11:06:14;22.95;42.72
79698;SHT31;69168;42.708;23.286;2023-05-20T11:08:40;23.05;43.01
79698;SHT31;69168;42.708;23.286;2023-05-20T11:11:06;23.27;42.98
79698;SHT31;69168;42.708;23.286;2023-05-20T11:13:32;23.49;41.57
79698;SHT31;69168;42.708;23.286;2023-05-20T11:15:59;23.68;42.81
79698;SHT31;69168;42.708;23.286;2023-05-20T11:18:28;23.85;42.13
79698;SHT31;69168;42.708;23.286;2023-05-20T11:20:55;24.10;41.34
79698;SHT31;69168;42.708;23.286;2023-05-20T11:23:20;24.35;41.86
79698;SHT31;69168;42.708;23.286;2023-05-20T11:25:50;24.52;40.70
79698;SHT31;69168;42.708;23.286;2023-05-20T11:28:18;24.60;40.41
79698;SHT31;69168;42.708;23.286;2023-05-20T11:30:44;24.71;40.13
79698;SHT31;69168;42.708;23.286;2023-05-20T11:33:14;24.80;40.37
79698;SHT31;69168;42.708;23.286;2023-05-20T11:35:48;24.96;39.70
79698;SHT31;69168;42.708;23.286;2023-05-20T11:38:14;25.29;39.91
79698;SHT31;69168;42.708;23.286;2023-05-20T11:40:49;25.59;39.68
79698;SHT31;69168;42.708;23.286;2023-05-20T11:43:15;25.71;38.70
79698;SHT31;69168;42.708;23.286;2023-05-20T11:45:43;25.19;38.90
79698;SHT31;69168;42.708;23.286;2023-05-20T11:48:09;25.35;38.99
79698;SHT31;69168;42.708;23.286;2023-05-20T11:50:40;25.88;39.15
79698;SHT31;69168;42.708;23.286;2023-05-20T11:53:14;26.29;38.40
79698;SHT31;69168;42.708;23.286;2023-05-20T11:55:48;26.67;37.23
79698;SHT31;69168;42.708;23.286;2023-05-20T11:58:25;26.98;36.65
79698;SHT31;69168;42.708;23.286;2023-05-20T12:00:51;27.00;36.46
79698;SHT31;69168;42.708;23.286;2023-05-20T12:03:16;27.04;36.16
79698;SHT31;69168;42.708;23.286;2023-05-20T12:05:42;27.32;36.48
79698;SHT31;69168;42.708;23.286;2023-05-20T12:08:08;27.73;36.24
79698;SHT31;69168;42.708;23.286;2023-05-20T12:10:33;28.08;35.66
79698;SHT31;69168;42.708;23.286;2023-05-20T12:12:59;28.14;34.49
79698;SHT31;69168;42.708;23.286;2023-05-20T12:15:25;28.12;34.11
79698;SHT31;69168;42.708;23.286;2023-05-20T12:17:52;28.17;33.95
79698;SHT31;69168;42.708;23.286;2023-05-20T12:20:22;28.63;33.41
79698;SHT31;69168;42.708;23.286;2023-05-20T12:22:47;28.47;33.03
79698;SHT31;69168;42.708;23.286;2023-05-20T12:25:17;28.56;32.98
79698;SHT31;69168;42.708;23.286;2023-05-20T12:27:44;28.82;32.65
79698;SHT31;69168;42.708;23.286;2023-05-20T12:30:14;28.75;32.73
79698;SHT31;69168;42.708;23.286;2023-05-20T12:32:40;28.20;33.12
79698;SHT31;69168;42.708;23.286;2023-05-20T12:35:08;27.79;34.01
79698;SHT31;69168;42.708;23.286;2023-05-20T12:37:33;28.03;33.09
79698;SHT31;69168;42.708;23.286;2023-05-20T12:39:59;27.69;34.05
79698;SHT31;69168;42.708;23.286;2023-05-20T12:42:24;27.22;33.86
79698;SHT31;69168;42.708;23.286;2023-05-20T12:44:50;26.47;36.10
79698;SHT31;69168;42.708;23.286;2023-05-20T12:47:15;25.70;37.39
79698;SHT31;69168;42.708;23.286;2023-05-20T12:49:41;25.09;37.80
79698;SHT31;69168;42.708;23.286;2023-05-20T12:52:06;24.73;38.20
79698;SHT31;69168;42.708;23.286;2023-05-20T12:54:32;24.54;37.87
79698;SHT31;69168;42.708;23.286;2023-05-20T12:56:58;24.33;37.57
79698;SHT31;69168;42.708;23.286;2023-05-20T12:59:23;24.28;37.76
79698;SHT31;69168;42.708;23.286;2023-05-20T13:01:49;24.10;37.28
79698;SHT31;69168;42.708;23.286;2023-05-20T13:04:15;24.08;37.88
79698;SHT31;69168;42.708;23.286;2023-05-20T13:06:41;24.02;38.45
79698;SHT31;69168;42.708;23.286;2023-05-20T13:09:06;23.98;37.93
79698;SHT31;69168;42.708;23.286;2023-05-20T13:11:32;24.84;36.81
79698;SHT31;69168;42.708;23.286;2023-05-20T13:13:58;25.88;35.88
79698;SHT31;69168;42.708;23.286;2023-05-20T13:16:24;26.52;34.26
79698;SHT31;69168;42.708;23.286;2023-05-20T13:18:49;26.86;34.55
79698;SHT31;69168;42.708;23.286;2023-05-20T13:21:15;27.24;34.43
79698;SHT31;69168;42.708;23.286;2023-05-20T13:23:41;27.42;33.39
79698;SHT31;69168;42.708;23.286;2023-05-20T13:26:06;27.57;33.53
79698;SHT31;69168;42.708;23.286;2023-05-20T13:28:32;27.87;34.12
79698;SHT31;69168;42.708;23.286;2023-05-20T13:30:57;28.18;32.82
79698;SHT31;69168;42.708;23.286;2023-05-20T13:33:23;28.20;34.00
79698;SHT31;69168;42.708;23.286;2023-05-20T13:35:49;28.24;34.00
79698;SHT31;69168;42.708;23.286;2023-05-20T13:38:14;28.56;32.94
79698;SHT31;69168;42.708;23.286;2023-05-20T13:40:40;28.99;32.53
79698;SHT31;69168;42.708;23.286;2023-05-20T13:43:06;29.35;31.80
79698;SHT31;69168;42.708;23.286;2023-05-20T13:45:31;29.62;30.98
79698;SHT31;69168;42.708;23.286;2023-05-20T13:47:57;30.00;30.04
79698;SHT31;69168;42.708;23.286;2023-05-20T13:50:22;29.63;30.74
79698;SHT31;69168;42.708;23.286;2023-05-20T13:52:48;29.66;30.92
79698;SHT31;69168;42.708;23.286;2023-05-20T13:55:14;28.93;31.38
79698;SHT31;69168;42.708;23.286;2023-05-20T13:57:41;28.79;33.05
79698;SHT31;69168;42.708;23.286;2023-05-20T14:00:07;29.07;32.99
79698;SHT31;69168;42.708;23.286;2023-05-20T14:02:33;29.28;32.31
79698;SHT31;69168;42.708;23.286;2023-05-20T14:04:58;29.51;32.56
79698;SHT31;69168;42.708;23.286;2023-05-20T14:07:24;29.38;32.35
79698;SHT31;69168;42.708;23.286;2023-05-20T14:09:49;29.55;32.46
79698;SHT31;69168;42.708;23.286;2023-05-20T14:12:15;29.68;32.11
79698;SHT31;69168;42.708;23.286;2023-05-20T14:14:40;29.54;32.08
79698;SHT31;69168;42.708;23.286;2023-05-20T14:17:06;28.72;33.04
79698;SHT31;69168;42.708;23.286;2023-05-20T14:19:31;28.69;33.75
79698;SHT31;69168;42.708;23.286;2023-05-20T14:21:56;29.06;33.84
79698;SHT31;69168;42.708;23.286;2023-05-20T14:24:25;28.92;33.90
79698;SHT31;69168;42.708;23.286;2023-05-20T14:26:51;29.04;33.62
79698;SHT31;69168;42.708;23.286;2023-05-20T14:29:16;28.77;33.81
79698;SHT31;69168;42.708;23.286;2023-05-20T14:31:41;28.05;34.66
79698;SHT31;69168;42.708;23.286;2023-05-20T14:34:07;27.62;34.96
79698;SHT31;69168;42.708;23.286;2023-05-20T14:36:32;27.28;36.44
79698;SHT31;69168;42.708;23.286;2023-05-20T14:38:58;26.74;37.54
79698;SHT31;69168;42.708;23.286;2023-05-20T14:41:23;26.21;38.19
79698;SHT31;69168;42.708;23.286;2023-05-20T14:43:48;25.59;38.81
79698;SHT31;69168;42.708;23.286;2023-05-20T14:46:14;25.22;39.86
79698;SHT31;69168;42.708;23.286;2023-05-20T14:48:40;25.01;39.92
79698;SHT31;69168;42.708;23.286;2023-05-20T14:51:05;24.81;40.71
79698;SHT31;69168;42.708;23.286;2023-05-20T14:53:30;24.60;41.90
79698;SHT31;69168;42.708;23.286;2023-05-20T14:55:56;24.53;42.42
79698;SHT31;69168;42.708;23.286;2023-05-20T14:58:21;24.33;43.73
79698;SHT31;69168;42.708;23.286;2023-05-20T15:00:47;24.25;42.35
79698;SHT31;69168;42.708;23.286;2023-05-20T15:03:12;24.08;42.19
79698;SHT31;69168;42.708;23.286;2023-05-20T15:05:38;23.71;43.16
79698;SHT31;69168;42.708;23.286;2023-05-20T15:08:03;23.55;43.16
79698;SHT31;69168;42.708;23.286;2023-05-20T15:10:29;23.68;43.38
79698;SHT31;69168;42.708;23.286;2023-05-20T15:12:54;23.75;44.24
79698;SHT31;69168;42.708;23.286;2023-05-20T15:15:20;23.75;45.50